Terminal Aerodrome Forecast
Issued by NWS Atlanta, GA

Home | Current Version | Previous Version | Text Only | Print | Product List | Glossary On
Versions: 1 2 3 4 5 6 7 8 9 10 11 12 13 14 15 16 17 18 19 20 21 22 23 24 25 26 27 28 29 30 31 32 33 34 35 36 37
021
FTAK31 PAJN 241740
TAFAHN
TAF
PAHN 241740Z 2418/2518 30006KT P6SM SKC
     FM242100 VRB04KT P6SM SCT060
     FM250000 09008KT P6SM SCT060 SCT150
     FM250500 10007KT P6SM VCSH SCT025 OVC060
     FM250800 VRB05KT 3SM -SN BR OVC020
     FM251500 30015KT P6SM BKN030 OVC050
      AMD LTD TO CLD VIS AND WIND=

USA.gov is the U.S. government's official web portal to all federal, state and local government web resources and services.